createdAt,value
2019-04-26T00:00:44.231Z,0.00
2019-04-26T00:01:44.267Z,0.00
2019-04-26T00:02:44.205Z,0.00
2019-04-26T00:03:44.193Z,0.00
2019-04-26T00:04:44.180Z,0.00
2019-04-26T00:05:44.170Z,0.00
2019-04-26T00:06:44.159Z,0.00
2019-04-26T00:07:44.199Z,0.00
2019-04-26T00:08:44.138Z,0.00
2019-04-26T00:09:44.130Z,0.00
2019-04-26T00:10:44.123Z,0.00
2019-04-26T00:11:44.106Z,0.00
2019-04-26T00:12:44.094Z,0.00
2019-04-26T00:13:44.140Z,0.00
2019-04-26T00:14:44.076Z,0.00
2019-04-26T00:15:44.065Z,0.00
2019-04-26T00:16:44.055Z,0.00
2019-04-26T00:17:44.046Z,0.00
2019-04-26T00:18:44.200Z,0.00
2019-04-26T00:19:44.022Z,0.00
2019-04-26T00:20:44.012Z,0.00
2019-04-26T00:21:44.001Z,0.00
2019-04-26T00:22:43.990Z,0.00
2019-04-26T00:23:44.031Z,0.00
2019-04-26T00:24:43.969Z,0.00
2019-04-26T00:25:43.958Z,0.00
2019-04-26T00:26:43.949Z,0.00
2019-04-26T00:27:43.941Z,0.00
2019-04-26T00:28:44.035Z,0.00
2019-04-26T00:29:43.920Z,0.00
2019-04-26T00:30:43.905Z,0.00
2019-04-26T00:31:43.896Z,0.00
2019-04-26T00:32:43.881Z,0.00
2019-04-26T00:33:43.874Z,5.62
2019-04-26T00:34:44.012Z,5.62
2019-04-26T00:35:47.780Z,5.62
2019-04-26T00:36:43.847Z,5.62
2019-04-26T00:37:43.832Z,5.62
2019-04-26T00:38:43.827Z,5.62
2019-04-26T00:39:43.807Z,5.62
2019-04-26T00:40:43.906Z,11.25
2019-04-26T00:41:43.785Z,11.25
2019-04-26T00:42:43.781Z,11.25
2019-04-26T00:43:43.764Z,11.25
2019-04-26T00:44:43.795Z,11.25
2019-04-26T00:45:43.743Z,16.87
2019-04-26T00:46:43.783Z,16.87
2019-04-26T00:47:43.725Z,16.87
2019-04-26T00:48:43.714Z,22.50
2019-04-26T00:49:44.227Z,22.50
2019-04-26T00:50:43.690Z,22.50
2019-04-26T00:51:43.682Z,22.50
2019-04-26T00:52:43.877Z,28.12
2019-04-26T00:53:43.663Z,28.12
2019-04-26T00:54:43.646Z,28.12
2019-04-26T00:55:43.641Z,33.75
2019-04-26T00:56:43.625Z,33.75
2019-04-26T00:57:43.614Z,33.75
2019-04-26T00:58:43.707Z,39.37
2019-04-26T00:59:43.595Z,39.37
2019-04-26T01:00:43.590Z,39.37
2019-04-26T01:01:43.573Z,39.37
2019-04-26T01:02:43.560Z,45.00
2019-04-26T01:03:43.554Z,45.00
2019-04-26T01:04:43.591Z,50.62
2019-04-26T01:05:43.530Z,50.62
2019-04-26T01:06:43.522Z,50.62
2019-04-26T01:07:43.507Z,50.62
2019-04-26T01:08:43.501Z,50.62
2019-04-26T01:09:43.487Z,56.25
2019-04-26T01:10:43.626Z,61.87
2019-04-26T01:11:43.466Z,73.12
2019-04-26T01:12:43.456Z,78.75
2019-04-26T01:13:43.447Z,84.37
2019-04-26T01:14:43.434Z,84.37
2019-04-26T01:15:43.423Z,84.37
2019-04-26T01:16:43.461Z,84.37
2019-04-26T01:17:43.399Z,90.00
2019-04-26T01:18:43.391Z,90.00
2019-04-26T01:19:43.379Z,95.62
2019-04-26T01:20:43.370Z,106.87
2019-04-26T01:21:43.362Z,112.50
2019-04-26T01:22:43.400Z,112.50
2019-04-26T01:23:43.336Z,112.50
2019-04-26T01:24:43.325Z,118.12
2019-04-26T01:25:43.319Z,118.12
2019-04-26T01:26:43.307Z,123.75
2019-04-26T01:27:43.295Z,123.75
2019-04-26T01:28:43.437Z,123.75
2019-04-26T01:29:43.275Z,135.00
2019-04-26T01:30:43.265Z,140.62
2019-04-26T01:31:43.254Z,146.25
2019-04-26T01:32:43.249Z,151.87
2019-04-26T01:33:43.231Z,157.50
2019-04-26T01:34:43.321Z,168.75
2019-04-26T01:35:43.210Z,174.37
2019-04-26T01:36:43.202Z,180.00
2019-04-26T01:37:43.191Z,185.62
2019-04-26T01:38:43.195Z,191.25
2019-04-26T01:39:43.175Z,191.25
2019-04-26T01:40:43.260Z,196.87
2019-04-26T01:41:43.147Z,202.50
2019-04-26T01:42:43.137Z,208.12
2019-04-26T01:43:43.125Z,213.75
2019-04-26T01:44:43.114Z,213.75
2019-04-26T01:45:43.152Z,213.75
2019-04-26T01:46:43.092Z,208.12
2019-04-26T01:47:43.084Z,202.50
2019-04-26T01:48:43.070Z,196.87
2019-04-26T01:49:43.058Z,185.62
2019-04-26T01:50:43.049Z,185.62
2019-04-26T01:51:43.139Z,191.25
2019-04-26T01:52:43.028Z,191.25
2019-04-26T01:53:43.019Z,196.87
2019-04-26T01:54:43.006Z,196.87
2019-04-26T01:55:43.000Z,196.87
2019-04-26T01:56:42.989Z,191.25
2019-04-26T01:57:43.128Z,191.25
2019-04-26T01:58:42.965Z,191.25
2019-04-26T01:59:42.963Z,191.25
2019-04-26T02:00:42.943Z,196.87
2019-04-26T02:01:42.938Z,202.50
2019-04-26T02:02:42.924Z,191.25
2019-04-26T02:03:43.013Z,185.62
2019-04-26T02:04:42.907Z,185.62
2019-04-26T02:05:42.890Z,180.00
2019-04-26T02:06:42.881Z,174.37
2019-04-26T02:07:42.872Z,174.37
2019-04-26T02:08:42.858Z,174.37
2019-04-26T02:09:42.903Z,174.37
2019-04-26T02:10:42.841Z,174.37
2019-04-26T02:11:42.826Z,168.75
2019-04-26T02:12:42.819Z,168.75
2019-04-26T02:13:42.809Z,174.37
2019-04-26T02:14:42.797Z,174.37
2019-04-26T02:15:42.934Z,180.00
2019-04-26T02:16:42.772Z,191.25
2019-04-26T02:17:42.764Z,202.50
2019-04-26T02:18:42.749Z,213.75
2019-04-26T02:19:42.745Z,236.25
2019-04-26T02:20:42.732Z,258.75
2019-04-26T02:21:42.775Z,275.62
2019-04-26T02:22:42.708Z,286.87
2019-04-26T02:23:42.700Z,292.50
2019-04-26T02:24:42.690Z,365.62
2019-04-26T02:25:42.673Z,286.87
2019-04-26T02:26:42.767Z,292.50
2019-04-26T02:27:42.654Z,303.75
2019-04-26T02:28:42.645Z,309.37
2019-04-26T02:29:42.630Z,320.62
2019-04-26T02:30:42.626Z,331.87
2019-04-26T02:31:42.620Z,343.12
2019-04-26T02:32:42.651Z,348.75
2019-04-26T02:33:42.593Z,348.75
2019-04-26T02:34:42.583Z,365.62
2019-04-26T02:35:42.569Z,376.87
2019-04-26T02:36:57.182Z,371.25
2019-04-26T02:37:43.694Z,405.00
2019-04-26T02:38:42.537Z,551.25
2019-04-26T02:39:42.541Z,466.87
2019-04-26T02:40:42.525Z,450.00
2019-04-26T02:41:42.513Z,444.37
2019-04-26T02:42:42.499Z,472.50
2019-04-26T02:44:42.624Z,511.87
2019-04-26T02:45:42.464Z,500.62
2019-04-26T02:46:42.451Z,450.00
2019-04-26T02:47:42.449Z,427.50
2019-04-26T02:48:42.435Z,421.87
2019-04-26T02:49:42.424Z,416.25
2019-04-26T02:50:42.509Z,410.62
2019-04-26T02:51:42.403Z,410.62
2019-04-26T02:52:42.413Z,421.87
2019-04-26T02:53:42.381Z,416.25
2019-04-26T02:54:42.374Z,416.25
2019-04-26T02:55:42.803Z,393.75
2019-04-26T02:56:42.398Z,388.12
2019-04-26T02:57:42.336Z,393.75
2019-04-26T02:58:42.326Z,433.12
2019-04-26T02:59:42.320Z,495.00
2019-04-26T03:00:42.309Z,500.62
2019-04-26T03:01:42.294Z,472.50
2019-04-26T03:02:42.433Z,444.37
2019-04-26T03:03:42.279Z,427.50
2019-04-26T03:04:42.268Z,427.50
2019-04-26T03:05:42.254Z,444.37
2019-04-26T03:06:42.832Z,455.62
2019-04-26T03:07:42.825Z,731.25
2019-04-26T03:08:42.763Z,438.75
2019-04-26T03:09:43.211Z,399.37
2019-04-26T03:10:43.498Z,388.12
2019-04-26T03:11:43.372Z,382.50
2019-04-26T03:12:43.169Z,376.87
2019-04-26T03:13:43.580Z,376.87
2019-04-26T03:14:42.208Z,376.87
2019-04-26T03:15:42.682Z,382.50
2019-04-26T03:16:42.938Z,388.12
2019-04-26T03:17:43.045Z,388.12
2019-04-26T03:18:43.059Z,421.87
2019-04-26T03:19:43.103Z,388.12
2019-04-26T03:20:42.343Z,388.12
2019-04-26T03:21:43.339Z,405.00
2019-04-26T03:22:42.673Z,624.37
2019-04-26T03:23:56.969Z,641.25
2019-04-26T03:25:06.862Z,382.50
2019-04-26T03:26:06.906Z,438.75
2019-04-26T03:27:06.845Z,528.75
2019-04-26T03:28:06.834Z,393.75
2019-04-26T03:29:06.819Z,933.75
2019-04-26T03:30:19.791Z,933.75
2019-04-26T03:31:36.294Z,438.75
2019-04-26T03:32:39.130Z,461.25
2019-04-26T03:33:56.604Z,523.12
2019-04-26T03:34:56.585Z,770.62
2019-04-26T03:35:58.267Z,556.87
2019-04-26T03:36:56.631Z,523.12
2019-04-26T03:37:56.462Z,500.62
2019-04-26T03:38:56.452Z,528.75
2019-04-26T03:39:56.442Z,489.37
2019-04-26T03:40:56.438Z,495.00
2019-04-26T03:41:56.472Z,534.37
2019-04-26T03:42:56.408Z,483.75
2019-04-26T03:43:56.457Z,478.12
2019-04-26T03:44:56.386Z,427.50
2019-04-26T03:45:56.386Z,405.00
2019-04-26T03:46:56.412Z,388.12
2019-04-26T03:47:56.357Z,382.50
2019-04-26T03:48:56.344Z,382.50
2019-04-26T03:49:56.333Z,388.12
2019-04-26T03:50:56.322Z,376.87
2019-04-26T03:51:56.311Z,365.62
2019-04-26T03:52:56.450Z,354.37
2019-04-26T03:53:56.310Z,343.12
2019-04-26T03:54:56.292Z,331.87
2019-04-26T03:55:56.272Z,326.25
2019-04-26T03:56:56.262Z,343.12
2019-04-26T03:57:56.246Z,382.50
2019-04-26T03:58:56.284Z,382.50
2019-04-26T03:59:56.223Z,427.50
2019-04-26T04:00:56.213Z,528.75
2019-04-26T04:01:56.205Z,568.12
2019-04-26T04:02:56.201Z,528.75
2019-04-26T04:03:56.192Z,466.87
2019-04-26T04:04:56.274Z,438.75
2019-04-26T04:05:56.160Z,410.62
2019-04-26T04:07:03.627Z,382.50
2019-04-26T04:08:20.951Z,337.50
2019-04-26T04:09:20.950Z,326.25
2019-04-26T04:10:21.079Z,315.00
2019-04-26T04:11:20.995Z,309.37
2019-04-26T04:12:21.001Z,320.62
2019-04-26T04:13:20.910Z,331.87
2019-04-26T04:14:21.059Z,343.12
2019-04-26T04:15:20.896Z,365.62
2019-04-26T04:16:20.928Z,348.75
2019-04-26T04:17:20.863Z,343.12
2019-04-26T04:18:20.850Z,343.12
2019-04-26T04:19:20.833Z,331.87
2019-04-26T04:20:20.822Z,326.25
2019-04-26T04:21:20.864Z,320.62
2019-04-26T04:22:20.807Z,315.00
2019-04-26T04:23:20.790Z,326.25
2019-04-26T04:24:20.781Z,337.50
2019-04-26T04:25:20.771Z,320.62
2019-04-26T04:26:20.910Z,320.62
2019-04-26T04:27:20.754Z,303.75
2019-04-26T04:28:20.739Z,270.00
2019-04-26T04:29:20.726Z,275.62
2019-04-26T04:30:20.727Z,303.75
2019-04-26T04:31:20.707Z,343.12
2019-04-26T04:32:20.756Z,393.75
2019-04-26T04:33:20.689Z,343.12
2019-04-26T04:34:20.695Z,298.12
2019-04-26T04:35:20.668Z,303.75
2019-04-26T04:36:20.652Z,326.25
2019-04-26T04:37:20.644Z,343.12
2019-04-26T04:38:20.682Z,365.62
2019-04-26T04:39:20.619Z,393.75
2019-04-26T04:40:20.610Z,376.87
2019-04-26T04:41:20.599Z,382.50
2019-04-26T04:42:20.610Z,399.37
2019-04-26T04:43:20.694Z,405.00
2019-04-26T04:44:20.616Z,399.37
2019-04-26T04:45:20.603Z,438.75
2019-04-26T04:46:20.733Z,438.75
2019-04-26T04:47:25.598Z,405.00
2019-04-26T04:48:20.655Z,382.50
2019-04-26T04:49:20.525Z,382.50
2019-04-26T04:50:20.558Z,393.75
2019-04-26T04:51:20.492Z,410.62
2019-04-26T04:52:20.478Z,421.87
2019-04-26T04:53:20.472Z,421.87
2019-04-26T04:54:20.466Z,438.75
2019-04-26T04:55:20.452Z,438.75
2019-04-26T04:56:20.590Z,433.12
2019-04-26T04:57:20.433Z,427.50
2019-04-26T04:58:20.524Z,433.12
2019-04-26T04:59:20.406Z,444.37
2019-04-26T05:00:20.397Z,438.75
2019-04-26T05:01:20.390Z,427.50
2019-04-26T05:02:20.476Z,421.87
2019-04-26T05:03:20.365Z,421.87
2019-04-26T05:04:20.353Z,416.25
2019-04-26T05:05:20.344Z,410.62
2019-04-26T05:06:20.335Z,405.00
2019-04-26T05:07:20.325Z,410.62
2019-04-26T05:08:20.362Z,427.50
2019-04-26T05:09:20.300Z,438.75
2019-04-26T05:10:20.296Z,461.25
2019-04-26T05:11:20.292Z,483.75
2019-04-26T05:12:20.266Z,478.12
2019-04-26T05:13:20.287Z,483.75
2019-04-26T05:14:20.499Z,489.37
2019-04-26T05:15:20.235Z,489.37
2019-04-26T05:16:20.225Z,483.75
2019-04-26T05:17:20.224Z,489.37
2019-04-26T05:18:20.208Z,472.50
2019-04-26T05:19:20.195Z,455.62
2019-04-26T05:21:20.220Z,466.87
2019-04-26T05:22:20.169Z,461.25
2019-04-26T05:23:20.149Z,444.37
2019-04-26T05:24:20.144Z,455.62
2019-04-26T05:25:20.130Z,455.62
2019-04-26T05:26:20.126Z,444.37
2019-04-26T05:27:20.157Z,450.00
2019-04-26T05:28:20.100Z,483.75
2019-04-26T05:29:20.089Z,528.75
2019-04-26T05:30:20.082Z,528.75
2019-04-26T05:31:20.118Z,489.37
2019-04-26T05:32:20.084Z,450.00
2019-04-26T05:33:20.200Z,466.87
2019-04-26T05:34:20.037Z,517.50
2019-04-26T05:35:20.024Z,556.87
2019-04-26T05:36:20.019Z,545.62
2019-04-26T05:37:20.009Z,523.12
2019-04-26T05:38:19.993Z,483.75
2019-04-26T05:39:20.029Z,466.87
2019-04-26T05:40:19.973Z,478.12
2019-04-26T05:41:19.959Z,495.00
2019-04-26T05:42:19.951Z,483.75
2019-04-26T05:43:19.940Z,495.00
2019-04-26T05:44:20.033Z,523.12
2019-04-26T05:45:19.927Z,534.37
2019-04-26T05:46:19.917Z,540.00
2019-04-26T05:47:19.902Z,534.37
2019-04-26T05:48:19.895Z,528.75
2019-04-26T05:49:19.883Z,528.75
2019-04-26T05:50:20.121Z,523.12
2019-04-26T05:51:19.868Z,517.50
2019-04-26T05:52:19.849Z,506.25
2019-04-26T05:53:19.843Z,500.62
2019-04-26T05:54:19.834Z,500.62
2019-04-26T05:55:19.828Z,511.87
2019-04-26T05:56:19.859Z,528.75
2019-04-26T05:57:19.795Z,534.37
2019-04-26T05:58:19.792Z,551.25
2019-04-26T05:59:19.780Z,556.87
2019-04-26T06:00:19.768Z,562.50
2019-04-26T06:01:19.761Z,562.50
2019-04-26T06:02:19.849Z,556.87
2019-04-26T06:03:19.740Z,562.50
2019-04-26T06:04:19.727Z,568.12
2019-04-26T06:05:19.716Z,579.37
2019-04-26T06:06:19.713Z,590.62
2019-04-26T06:07:19.694Z,601.87
2019-04-26T06:08:30.697Z,624.37
2019-04-26T06:09:20.774Z,641.25
2019-04-26T06:10:19.666Z,641.25
2019-04-26T06:11:19.684Z,630.00
2019-04-26T06:12:19.697Z,613.12
2019-04-26T06:13:19.642Z,607.50
2019-04-26T06:14:19.677Z,601.87
2019-04-26T06:15:19.619Z,596.25
2019-04-26T06:16:19.613Z,585.00
2019-04-26T06:17:19.597Z,573.75
2019-04-26T06:18:19.582Z,562.50
2019-04-26T06:19:19.574Z,562.50
2019-04-26T06:20:22.997Z,545.62
2019-04-26T06:21:19.555Z,545.62
2019-04-26T06:22:19.543Z,534.37
2019-04-26T06:23:19.530Z,540.00
2019-04-26T06:24:19.523Z,540.00
2019-04-26T06:25:19.523Z,545.62
2019-04-26T06:26:19.655Z,545.62
2019-04-26T06:27:19.493Z,540.00
2019-04-26T06:28:19.480Z,534.37
2019-04-26T06:29:19.471Z,540.00
2019-04-26T06:30:19.458Z,551.25
2019-04-26T06:31:19.450Z,551.25
2019-04-26T06:32:19.544Z,540.00
2019-04-26T06:33:19.425Z,523.12
2019-04-26T06:34:19.416Z,517.50
2019-04-26T06:35:20.342Z,500.62
2019-04-26T06:36:19.395Z,483.75
2019-04-26T06:37:19.394Z,472.50
2019-04-26T06:38:19.423Z,472.50
2019-04-26T06:39:19.363Z,461.25
2019-04-26T06:40:19.354Z,450.00
2019-04-26T06:41:21.500Z,433.12
2019-04-26T06:42:19.333Z,421.87
2019-04-26T06:43:19.324Z,410.62
2019-04-26T06:44:19.461Z,410.62
2019-04-26T06:45:19.301Z,416.25
2019-04-26T06:46:19.292Z,421.87
2019-04-26T06:47:19.282Z,433.12
2019-04-26T06:48:19.277Z,444.37
2019-04-26T06:49:19.260Z,450.00
2019-04-26T06:50:19.349Z,455.62
2019-04-26T06:51:24.522Z,483.75
2019-04-26T06:52:19.230Z,495.00
2019-04-26T06:53:19.218Z,495.00
2019-04-26T06:54:19.211Z,478.12
2019-04-26T06:55:19.196Z,466.87
2019-04-26T06:56:19.248Z,478.12
2019-04-26T06:57:19.178Z,472.50
2019-04-26T06:58:19.168Z,466.87
2019-04-26T06:59:19.156Z,461.25
2019-04-26T07:00:19.145Z,455.62
2019-04-26T07:01:19.145Z,466.87
2019-04-26T07:02:19.376Z,483.75
2019-04-26T07:03:19.114Z,500.62
2019-04-26T07:04:19.106Z,511.87
2019-04-26T07:05:19.095Z,528.75
2019-04-26T07:06:19.081Z,528.75
2019-04-26T07:07:19.072Z,528.75
2019-04-26T07:08:19.110Z,534.37
2019-04-26T07:09:19.053Z,540.00
2019-04-26T07:10:19.045Z,540.00
2019-04-26T07:11:19.028Z,545.62
2019-04-26T07:12:19.020Z,540.00
2019-04-26T07:13:19.006Z,534.37
2019-04-26T07:14:19.046Z,517.50
2019-04-26T07:15:28.354Z,511.87
2019-04-26T07:16:43.795Z,523.12
2019-04-26T07:17:43.783Z,528.75
2019-04-26T07:18:43.767Z,540.00
2019-04-26T07:19:43.912Z,540.00
2019-04-26T07:20:43.752Z,551.25
2019-04-26T07:21:43.738Z,556.87
2019-04-26T07:22:43.724Z,545.62
2019-04-26T07:23:43.721Z,534.37
2019-04-26T07:24:43.706Z,528.75
2019-04-26T07:25:43.745Z,528.75
2019-04-26T07:26:43.684Z,534.37
2019-04-26T07:27:43.676Z,534.37
2019-04-26T07:28:43.660Z,534.37
2019-04-26T07:29:43.653Z,534.37
2019-04-26T07:30:43.642Z,523.12
2019-04-26T07:31:43.689Z,517.50
2019-04-26T07:32:43.624Z,523.12
2019-04-26T07:33:43.613Z,517.50
2019-04-26T07:34:43.604Z,506.25
2019-04-26T07:35:43.597Z,506.25
2019-04-26T07:36:43.586Z,500.62
2019-04-26T07:37:43.819Z,500.62
2019-04-26T07:38:43.560Z,495.00
2019-04-26T07:39:43.551Z,483.75
2019-04-26T07:40:43.545Z,478.12
2019-04-26T07:41:43.530Z,478.12
2019-04-26T07:42:43.517Z,478.12
2019-04-26T07:43:43.556Z,466.87
2019-04-26T07:44:43.499Z,455.62
2019-04-26T07:45:43.486Z,450.00
2019-04-26T07:46:43.477Z,444.37
2019-04-26T07:47:43.463Z,433.12
2019-04-26T07:48:43.456Z,427.50
2019-04-26T07:49:43.493Z,421.87
2019-04-26T07:50:43.435Z,421.87
2019-04-26T07:51:43.427Z,416.25
2019-04-26T07:52:44.088Z,416.25
2019-04-26T07:53:43.403Z,421.87
2019-04-26T07:54:43.392Z,416.25
2019-04-26T07:55:43.531Z,416.25
2019-04-26T07:56:43.379Z,416.25
2019-04-26T07:57:43.361Z,444.37
2019-04-26T07:58:43.353Z,466.87
2019-04-26T07:59:43.342Z,483.75
2019-04-26T08:00:44.953Z,483.75
2019-04-26T08:01:43.369Z,466.87
2019-04-26T08:02:43.310Z,450.00
2019-04-26T08:03:43.299Z,444.37
2019-04-26T08:04:43.286Z,427.50
2019-04-26T08:05:43.277Z,444.37
2019-04-26T08:06:43.266Z,455.62
2019-04-26T08:07:43.309Z,461.25
2019-04-26T08:08:43.246Z,461.25
2019-04-26T08:09:46.049Z,438.75
2019-04-26T08:10:43.225Z,427.50
2019-04-26T08:11:43.219Z,438.75
2019-04-26T08:12:43.256Z,444.37
2019-04-26T08:13:43.190Z,438.75
2019-04-26T08:14:43.188Z,444.37
2019-04-26T08:15:43.173Z,450.00
2019-04-26T08:16:43.166Z,466.87
2019-04-26T08:17:43.553Z,466.87
2019-04-26T08:18:43.144Z,455.62
2019-04-26T08:19:43.130Z,433.12
2019-04-26T08:20:43.122Z,421.87
2019-04-26T08:21:47.883Z,416.25
2019-04-26T08:22:43.100Z,405.00
2019-04-26T08:24:43.136Z,393.75
2019-04-26T08:25:43.070Z,388.12
2019-04-26T08:26:43.059Z,388.12
2019-04-26T08:27:43.048Z,399.37
2019-04-26T08:28:43.040Z,405.00
2019-04-26T08:29:43.030Z,393.75
2019-04-26T08:30:44.935Z,405.00
2019-04-26T08:31:43.006Z,393.75
2019-04-26T08:32:43.004Z,382.50
2019-04-26T08:33:48.639Z,382.50
2019-04-26T09:23:21.887Z,371.25
2019-04-26T09:24:25.105Z,360.00
2019-04-26T09:25:22.759Z,354.37
2019-04-26T09:26:21.923Z,337.50
2019-04-26T09:27:22.520Z,331.87
2019-04-26T09:28:21.938Z,331.87
2019-04-26T09:29:21.826Z,331.87
2019-04-26T09:30:33.351Z,331.87
2019-04-26T09:31:50.488Z,331.87
2019-04-26T09:32:47.709Z,326.25
2019-04-26T09:33:46.753Z,320.62
2019-04-26T09:34:46.599Z,315.00
2019-04-26T09:35:46.580Z,309.37
2019-04-26T09:36:46.574Z,298.12
2019-04-26T09:37:46.554Z,286.87
2019-04-26T09:38:46.547Z,275.62
2019-04-26T09:39:46.635Z,264.37
2019-04-26T09:40:46.535Z,264.37
2019-04-26T09:41:46.513Z,264.37
2019-04-26T09:42:46.506Z,281.25
2019-04-26T09:43:46.502Z,309.37
2019-04-26T09:44:46.583Z,315.00
2019-04-26T09:45:48.072Z,326.25
2019-04-26T09:46:48.401Z,331.87
2019-04-26T09:47:46.450Z,337.50
2019-04-26T09:48:46.442Z,331.87
2019-04-26T09:49:46.584Z,315.00
2019-04-26T09:50:46.421Z,286.87
2019-04-26T09:51:46.409Z,258.75
2019-04-26T09:52:46.405Z,241.87
2019-04-26T09:53:46.393Z,230.62
2019-04-26T09:54:46.376Z,219.37
2019-04-26T09:55:46.484Z,208.12
2019-04-26T09:56:46.359Z,208.12
2019-04-26T09:57:46.348Z,208.12
2019-04-26T09:58:46.334Z,208.12
2019-04-26T09:59:46.327Z,196.87
2019-04-26T10:00:48.465Z,191.25
2019-04-26T10:01:46.354Z,191.25
2019-04-26T10:02:46.289Z,191.25
2019-04-26T10:03:46.282Z,185.62
2019-04-26T10:04:46.272Z,174.37
2019-04-26T10:05:46.263Z,168.75
2019-04-26T10:06:46.250Z,168.75
2019-04-26T10:07:46.389Z,168.75
2019-04-26T10:08:47.093Z,163.12
2019-04-26T10:09:46.217Z,157.50
2019-04-26T10:10:46.211Z,151.87
2019-04-26T10:11:46.196Z,140.62
2019-04-26T10:12:46.185Z,129.37
2019-04-26T10:13:46.274Z,123.75
2019-04-26T10:14:46.516Z,118.12
2019-04-26T10:15:46.164Z,112.50
2019-04-26T10:16:46.139Z,112.50
2019-04-26T10:17:46.463Z,106.87
2019-04-26T10:18:46.121Z,106.87
2019-04-26T10:19:46.258Z,101.25
2019-04-26T10:20:46.095Z,101.25
2019-04-26T10:21:46.086Z,95.62
2019-04-26T10:22:46.075Z,95.62
2019-04-26T10:23:46.065Z,90.00
2019-04-26T10:24:46.056Z,84.37
2019-04-26T10:25:47.420Z,84.37
2019-04-26T10:26:46.033Z,78.75
2019-04-26T10:27:46.018Z,84.37
2019-04-26T10:28:46.786Z,90.00
2019-04-26T10:29:46.001Z,95.62
2019-04-26T10:30:45.988Z,101.25
2019-04-26T10:31:47.574Z,101.25
2019-04-26T10:32:45.965Z,101.25
2019-04-26T10:33:45.959Z,95.62
2019-04-26T10:34:47.255Z,95.62
2019-04-26T10:35:45.935Z,90.00
2019-04-26T10:36:45.926Z,84.37
2019-04-26T10:37:48.052Z,84.37
2019-04-26T10:38:45.902Z,84.37
2019-04-26T10:39:45.893Z,84.37
2019-04-26T10:40:45.886Z,84.37
2019-04-26T10:41:45.870Z,90.00
2019-04-26T10:42:45.864Z,90.00
2019-04-26T10:43:46.001Z,95.62
2019-04-26T10:44:45.839Z,95.62
2019-04-26T10:45:53.528Z,101.25
2019-04-26T10:47:10.635Z,101.25
2019-04-26T10:48:13.932Z,106.87
2019-04-26T10:49:12.026Z,106.87
2019-04-26T10:50:10.601Z,112.50
2019-04-26T10:51:10.586Z,118.12
2019-04-26T10:52:11.992Z,123.75
2019-04-26T10:53:10.568Z,123.75
2019-04-26T10:54:10.559Z,129.37
2019-04-26T10:55:12.245Z,123.75
2019-04-26T10:56:10.536Z,123.75
2019-04-26T10:57:10.525Z,118.12
2019-04-26T10:58:10.527Z,118.12
2019-04-26T10:59:11.004Z,118.12
2019-04-26T11:00:10.490Z,118.12
2019-04-26T11:02:10.573Z,129.37
2019-04-26T11:03:10.460Z,129.37
2019-04-26T11:04:10.454Z,135.00
2019-04-26T11:05:11.666Z,135.00
2019-04-26T11:06:35.246Z,129.37
2019-04-26T11:07:35.290Z,129.37
2019-04-26T11:08:35.223Z,135.00
2019-04-26T11:09:35.210Z,140.62
2019-04-26T11:10:47.663Z,146.25
2019-04-26T11:11:36.286Z,151.87
2019-04-26T11:12:35.338Z,151.87
2019-04-26T11:13:35.170Z,151.87
2019-04-26T11:14:35.161Z,146.25
2019-04-26T11:15:35.143Z,146.25
2019-04-26T11:16:37.260Z,146.25
2019-04-26T11:17:35.127Z,151.87
2019-04-26T11:18:35.217Z,157.50
2019-04-26T11:19:35.530Z,163.12
2019-04-26T11:20:35.095Z,180.00
2019-04-26T11:21:35.081Z,202.50
2019-04-26T11:22:37.639Z,225.00
2019-04-26T11:23:35.058Z,241.87
2019-04-26T11:24:35.149Z,253.12
2019-04-26T11:25:35.039Z,258.75
2019-04-26T11:26:36.248Z,258.75
2019-04-26T11:27:35.017Z,253.12
2019-04-26T11:28:35.007Z,253.12
2019-04-26T11:29:34.994Z,247.50
2019-04-26T11:30:35.132Z,241.87
2019-04-26T11:31:34.978Z,230.62
2019-04-26T11:32:36.780Z,225.00
2019-04-26T11:33:44.429Z,213.75
2019-04-26T11:34:36.040Z,208.12
2019-04-26T11:35:34.985Z,196.87
2019-04-26T11:36:37.633Z,191.25
2019-04-26T11:37:59.788Z,180.00
2019-04-26T11:39:01.397Z,180.00
2019-04-26T11:39:59.700Z,180.00
2019-04-26T11:41:06.191Z,180.00
2019-04-26T11:42:00.825Z,174.37
2019-04-26T11:42:59.669Z,174.37
2019-04-26T11:43:59.657Z,174.37
2019-04-26T11:45:06.021Z,174.37
2019-04-26T11:46:29.108Z,174.37
2019-04-26T11:47:24.497Z,174.37
2019-04-26T11:48:25.502Z,168.75
2019-04-26T11:49:24.424Z,163.12
2019-04-26T11:50:24.416Z,163.12
2019-04-26T11:51:27.560Z,163.12
2019-04-26T11:52:24.392Z,163.12
2019-04-26T11:53:24.432Z,168.75
2019-04-26T11:54:24.371Z,180.00
2019-04-26T11:55:25.414Z,185.62
2019-04-26T11:56:24.359Z,191.25
2019-04-26T11:57:24.342Z,191.25
2019-04-26T11:58:24.494Z,191.25
2019-04-26T11:59:27.035Z,180.00
2019-04-26T12:00:49.126Z,180.00
2019-04-26T12:01:49.114Z,180.00
2019-04-26T12:02:50.725Z,180.00
2019-04-26T12:03:51.542Z,180.00
2019-04-26T12:04:49.721Z,180.00
2019-04-26T12:05:49.071Z,180.00
2019-04-26T12:06:49.061Z,180.00
2019-04-26T12:07:49.057Z,180.00
2019-04-26T12:08:49.044Z,180.00
2019-04-26T12:09:49.080Z,180.00
2019-04-26T12:10:49.018Z,180.00
2019-04-26T12:12:03.521Z,180.00
2019-04-26T12:13:13.837Z,180.00
2019-04-26T12:14:20.099Z,174.37
2019-04-26T12:15:43.228Z,168.75
2019-04-26T12:16:48.022Z,163.12
2019-04-26T12:18:05.521Z,157.50
2019-04-26T12:19:03.635Z,157.50
2019-04-26T12:20:03.633Z,157.50
2019-04-26T12:21:03.668Z,157.50
2019-04-26T12:22:04.295Z,151.87
2019-04-26T12:23:03.603Z,151.87
2019-04-26T12:24:03.586Z,146.25
2019-04-26T12:25:07.210Z,140.62
2019-04-26T12:26:03.563Z,135.00
2019-04-26T12:27:03.653Z,135.00
2019-04-26T12:28:06.167Z,135.00
2019-04-26T12:29:03.525Z,135.00
2019-04-26T12:30:03.515Z,135.00
2019-04-26T12:31:03.505Z,135.00
2019-04-26T12:32:03.495Z,135.00
2019-04-26T12:33:03.637Z,135.00
2019-04-26T12:34:03.471Z,129.37
2019-04-26T12:35:03.464Z,123.75
2019-04-26T12:36:03.451Z,123.75
2019-04-26T12:37:03.450Z,123.75
2019-04-26T12:38:03.431Z,123.75
2019-04-26T12:39:03.516Z,123.75
2019-04-26T12:40:03.405Z,118.12
2019-04-26T12:41:03.394Z,118.12
2019-04-26T12:42:03.385Z,118.12
2019-04-26T12:43:03.374Z,112.50
2019-04-26T12:44:03.464Z,112.50
2019-04-26T12:45:03.451Z,112.50
2019-04-26T12:46:03.340Z,112.50
2019-04-26T12:47:05.097Z,112.50
2019-04-26T12:48:03.319Z,112.50
2019-04-26T12:49:03.308Z,112.50
2019-04-26T12:50:03.297Z,106.87
2019-04-26T12:51:03.438Z,106.87
2019-04-26T12:52:03.275Z,106.87
2019-04-26T12:53:03.263Z,106.87
2019-04-26T12:54:03.649Z,101.25
2019-04-26T12:55:03.242Z,101.25
2019-04-26T12:56:03.234Z,95.62
2019-04-26T12:57:05.846Z,95.62
2019-04-26T12:58:03.212Z,95.62
2019-04-26T12:59:03.204Z,95.62
2019-04-26T13:00:03.713Z,90.00
2019-04-26T13:01:03.178Z,90.00
2019-04-26T13:02:05.870Z,90.00
2019-04-26T13:03:03.206Z,84.37
2019-04-26T13:04:03.649Z,84.37
2019-04-26T13:05:03.134Z,84.37
2019-04-26T13:06:03.179Z,78.75
2019-04-26T13:07:07.052Z,78.75
2019-04-26T13:08:03.099Z,78.75
2019-04-26T13:09:03.148Z,78.75
2019-04-26T13:10:03.102Z,73.12
2019-04-26T13:11:03.066Z,73.12
2019-04-26T13:12:03.055Z,73.12
2019-04-26T13:13:03.049Z,73.12
2019-04-26T13:14:03.435Z,73.12
2019-04-26T13:15:03.026Z,73.12
2019-04-26T13:16:03.011Z,73.12
2019-04-26T13:17:03.000Z,78.75
2019-04-26T13:18:02.989Z,78.75
2019-04-26T13:19:02.982Z,73.12
2019-04-26T13:20:03.020Z,73.12
2019-04-26T13:21:04.302Z,73.12
2019-04-26T13:22:02.950Z,73.12
2019-04-26T13:23:02.939Z,73.12
2019-04-26T13:24:04.435Z,73.12
2019-04-26T13:25:02.914Z,67.50
2019-04-26T13:26:02.954Z,67.50
2019-04-26T13:27:06.169Z,67.50
2019-04-26T13:28:27.695Z,61.87
2019-04-26T13:29:31.191Z,61.87
2019-04-26T13:30:32.985Z,61.87
2019-04-26T13:31:31.776Z,56.25
2019-04-26T13:32:27.653Z,56.25
2019-04-26T13:33:29.067Z,56.25